Time;durP1;ratioP1;P1;durP2;ratioP2;P2;SDS_P1;SDS_P2;PMS_P1;PMS_P2;Temp;Humidity;BMP_temperature;BMP_pressure;BME280_temperature;BME280_humidity;BME280_pressure;Samples;Min_cycle;Max_cycle;Signal;HPM_P1;HPM_P2
2022/02/02 00:04:30;;;;;;;4.85;3.90;;;;;;;;;;4990063;28;20030;-69
2022/02/02 00:07:08;;;;;;;4.22;3.05;;;;;;;;;;4984115;28;20027;-70
2022/02/02 00:09:35;;;;;;;4.43;2.83;;;;;;;;;;4987899;28;20065;-69
2022/02/02 00:17:08;;;;;;;4.82;2.30;;;;;;;;;;4986552;28;20575;-72
2022/02/02 00:19:48;;;;;;;5.65;3.45;;;;;;;;;;4986711;28;20767;-68
2022/02/02 00:22:18;;;;;;;4.85;3.55;;;;;;;;;;4982829;28;20093;-70
2022/02/02 00:27:16;;;;;;;5.82;2.90;;;;;;;;;;4989507;28;20045;-70
2022/02/02 00:29:48;;;;;;;4.28;2.80;;;;;;;;;;4989379;28;20033;-71
2022/02/02 00:32:24;;;;;;;4.22;2.83;;;;;;;;;;4980948;28;20045;-70
2022/02/02 00:34:50;;;;;;;4.28;2.58;;;;;;;;;;4998855;28;20057;-70
2022/02/02 00:37:17;;;;;;;4.40;2.10;;;;;;;;;;4982039;28;20045;-71
2022/02/02 00:39:44;;;;;;;3.40;1.90;;;;;;;;;;4998174;28;20026;-70
2022/02/02 00:42:10;;;;;;;2.92;2.30;;;;;;;;;;4978948;28;20041;-70
2022/02/02 00:44:41;;;;;;;3.20;1.80;;;;;;;;;;4985334;28;20499;-70
2022/02/02 00:47:08;;;;;;;3.97;2.50;;;;;;;;;;4988720;28;20021;-71
2022/02/02 00:49:35;;;;;;;2.70;2.03;;;;;;;;;;4994989;28;20058;-70
2022/02/02 00:52:02;;;;;;;3.70;2.25;;;;;;;;;;4981641;28;20509;-70
2022/02/02 00:54:29;;;;;;;4.50;2.35;;;;;;;;;;4980810;28;20374;-72
2022/02/02 00:56:56;;;;;;;3.25;2.03;;;;;;;;;;4976612;28;20466;-70
2022/02/02 00:59:22;;;;;;;3.90;2.83;;;;;;;;;;4981176;28;20111;-70
2022/02/02 01:01:49;;;;;;;3.63;2.28;;;;;;;;;;4989151;28;20025;-70
2022/02/02 01:04:15;;;;;;;2.50;2.30;;;;;;;;;;4981298;28;20061;-69
2022/02/02 01:06:50;;;;;;;3.97;2.38;;;;;;;;;;4986406;28;20084;-68
2022/02/02 01:09:23;;;;;;;3.17;2.50;;;;;;;;;;4986988;28;20038;-69
2022/02/02 01:19:36;;;;;;;3.80;2.70;;;;;;;;;;4986937;28;20114;-69
2022/02/02 01:27:50;;;;;;;2.80;1.70;;;;;;;;;;4979046;28;20101;-70
2022/02/02 01:30:07;;;;;;;1.70;1.58;;;;;;;;;;4982500;28;20033;-68
2022/02/02 01:32:34;;;;;;;3.05;1.80;;;;;;;;;;4986827;28;20045;-71
2022/02/02 01:35:00;;;;;;;3.28;1.85;;;;;;;;;;4985500;28;20031;-69
2022/02/02 01:37:27;;;;;;;1.65;1.55;;;;;;;;;;4991516;28;20051;-70
2022/02/02 01:40:00;;;;;;;3.72;1.90;;;;;;;;;;4986419;28;20573;-68
2022/02/02 01:42:40;;;;;;;2.95;2.00;;;;;;;;;;4986854;28;20085;-70
2022/02/02 01:45:15;;;;;;;6.15;2.08;;;;;;;;;;4984173;28;20109;-69
2022/02/02 01:47:53;;;;;;;2.15;1.77;;;;;;;;;;4982295;28;20030;-69
2022/02/02 01:50:23;;;;;;;3.30;1.65;;;;;;;;;;4986168;28;20117;-68
2022/02/02 01:53:19;;;;;;;7.25;2.70;;;;;;;;;;4980142;28;20034;-67
2022/02/02 01:55:38;;;;;;;2.70;2.17;;;;;;;;;;4983924;28;20045;-70
2022/02/02 02:00:34;;;;;;;7.57;2.67;;;;;;;;;;4982972;28;20023;-70
2022/02/02 02:03:02;;;;;;;3.35;2.10;;;;;;;;;;4982032;28;20371;-70
2022/02/02 02:05:28;;;;;;;6.40;1.98;;;;;;;;;;4983838;28;20030;-69
2022/02/02 02:07:54;;;;;;;7.03;2.22;;;;;;;;;;4987196;28;20027;-70
2022/02/02 02:10:22;;;;;;;5.38;1.80;;;;;;;;;;4983978;28;20073;-70
2022/02/02 02:13:01;;;;;;;9.82;3.75;;;;;;;;;;4983511;28;20066;-70
2022/02/02 02:15:30;;;;;;;2.60;1.85;;;;;;;;;;4980168;28;20517;-71
2022/02/02 02:17:58;;;;;;;4.65;1.92;;;;;;;;;;4997678;28;20030;-69
2022/02/02 02:20:24;;;;;;;6.70;2.13;;;;;;;;;;4978127;28;20015;-69
2022/02/02 02:22:50;;;;;;;3.72;1.70;;;;;;;;;;4986000;28;20046;-69
2022/02/02 02:25:38;;;;;;;3.80;2.40;;;;;;;;;;4984084;28;20416;-71
2022/02/02 02:57:48;;;;;;;9.20;2.53;;;;;;;;;;4986640;28;20041;-70
2022/02/02 04:07:09;;;;;;;6.40;3.65;;;;;;;;;;4978583;28;20042;-70
2022/02/02 04:09:34;;;;;;;6.35;2.72;;;;;;;;;;4985891;28;20042;-67
2022/02/02 04:37:19;;;;;;;3.88;2.10;;;;;;;;;;4976081;28;20038;-70
2022/02/02 04:58:34;;;;;;;9.10;2.60;;;;;;;;;;4982201;28;20035;-68
2022/02/02 05:06:43;;;;;;;9.48;3.35;;;;;;;;;;4978911;28;20421;-70
2022/02/02 05:49:39;;;;;;;9.07;3.10;;;;;;;;;;4975608;28;20572;-69
2022/02/02 05:51:57;;;;;;;12.50;3.83;;;;;;;;;;4984414;28;20454;-71
2022/02/02 05:54:24;;;;;;;12.13;4.05;;;;;;;;;;4980820;28;20066;-71
2022/02/02 05:56:52;;;;;;;9.48;3.53;;;;;;;;;;4978998;28;20429;-70
2022/02/02 05:59:22;;;;;;;17.35;3.95;;;;;;;;;;4985553;28;20034;-69
2022/02/02 06:01:52;;;;;;;14.57;3.45;;;;;;;;;;4985337;28;20050;-68
2022/02/02 06:04:21;;;;;;;11.90;3.65;;;;;;;;;;4982100;28;20483;-69
2022/02/02 06:06:48;;;;;;;16.38;4.50;;;;;;;;;;4985685;28;20101;-70
2022/02/02 06:09:14;;;;;;;12.23;3.65;;;;;;;;;;4986921;28;20385;-70
2022/02/02 06:11:41;;;;;;;10.93;3.20;;;;;;;;;;4990563;28;20436;-69
2022/02/02 06:14:08;;;;;;;15.35;3.78;;;;;;;;;;4990508;28;20037;-71
2022/02/02 06:16:35;;;;;;;15.25;3.88;;;;;;;;;;4988822;28;20097;-70
2022/02/02 06:19:02;;;;;;;11.68;3.63;;;;;;;;;;4981974;28;20015;-71
2022/02/02 06:21:30;;;;;;;12.90;3.88;;;;;;;;;;4982229;28;20030;-69
2022/02/02 06:24:18;;;;;;;12.93;3.28;;;;;;;;;;4992233;28;20026;-70
2022/02/02 06:26:48;;;;;;;19.60;4.47;;;;;;;;;;4980920;28;20027;-71
2022/02/02 06:29:15;;;;;;;17.00;4.13;;;;;;;;;;4987362;28;20039;-69
2022/02/02 06:31:42;;;;;;;15.57;4.95;;;;;;;;;;4990985;28;20030;-69
2022/02/02 06:34:10;;;;;;;11.15;3.95;;;;;;;;;;4996998;28;20030;-70
2022/02/02 06:36:38;;;;;;;27.48;4.18;;;;;;;;;;4987537;28;20041;-71
2022/02/02 06:39:09;;;;;;;13.35;3.45;;;;;;;;;;4986840;28;20501;-70
2022/02/02 06:41:35;;;;;;;10.80;3.17;;;;;;;;;;4983097;28;20034;-71
2022/02/02 06:44:03;;;;;;;13.13;3.90;;;;;;;;;;4980891;28;20101;-70
2022/02/02 06:46:32;;;;;;;14.45;3.33;;;;;;;;;;5001392;28;20043;-67
2022/02/02 06:48:59;;;;;;;16.00;4.15;;;;;;;;;;4986621;28;20026;-70
2022/02/02 06:51:47;;;;;;;13.07;4.00;;;;;;;;;;4999177;28;20046;-71
2022/02/02 06:54:20;;;;;;;16.15;4.35;;;;;;;;;;4988234;28;20037;-71
2022/02/02 06:56:53;;;;;;;15.80;3.70;;;;;;;;;;4986394;28;20026;-71
2022/02/02 07:00:28;;;;;;;11.18;3.75;;;;;;;;;;4980264;28;20403;-71
2022/02/02 07:31:05;;;;;;;19.83;6.63;;;;;;;;;;4978091;28;20174;-70
2022/02/02 07:33:37;;;;;;;24.38;7.68;;;;;;;;;;4986127;28;20085;-71
2022/02/02 07:36:21;;;;;;;15.07;7.57;;;;;;;;;;4987305;28;20477;-70
2022/02/02 07:38:54;;;;;;;17.98;6.07;;;;;;;;;;4987951;28;20019;-71
2022/02/02 07:41:26;;;;;;;18.10;6.05;;;;;;;;;;4989914;28;20026;-69
2022/02/02 07:43:54;;;;;;;15.00;5.72;;;;;;;;;;4991926;28;20054;-70
2022/02/02 07:46:26;;;;;;;15.95;5.38;;;;;;;;;;4986235;28;20496;-70
2022/02/02 07:48:52;;;;;;;15.48;4.93;;;;;;;;;;4992991;28;20085;-70
2022/02/02 07:51:19;;;;;;;14.30;5.47;;;;;;;;;;4991589;28;20042;-70
2022/02/02 07:53:51;;;;;;;31.45;6.60;;;;;;;;;;4985403;28;20588;-69
2022/02/02 07:56:31;;;;;;;18.33;5.68;;;;;;;;;;4993225;28;20023;-69
2022/02/02 07:59:19;;;;;;;24.10;5.30;;;;;;;;;;4975736;28;20121;-70
2022/02/02 08:01:47;;;;;;;17.38;5.25;;;;;;;;;;5002265;28;20037;-70
2022/02/02 08:04:15;;;;;;;16.77;4.88;;;;;;;;;;4978372;28;20502;-70
2022/02/02 08:06:44;;;;;;;19.85;4.90;;;;;;;;;;4982486;28;20484;-69
2022/02/02 08:09:15;;;;;;;16.00;5.13;;;;;;;;;;4977668;28;20105;-70
2022/02/02 08:11:42;;;;;;;22.00;4.82;;;;;;;;;;4994815;28;20054;-69
2022/02/02 08:14:08;;;;;;;13.75;4.15;;;;;;;;;;4982387;28;20054;-70
2022/02/02 08:16:37;;;;;;;15.60;4.82;;;;;;;;;;4974440;28;20789;-70
2022/02/02 08:19:04;;;;;;;14.82;5.47;;;;;;;;;;4977606;28;20036;-70
2022/02/02 08:21:30;;;;;;;18.45;5.50;;;;;;;;;;4971915;28;20011;-70
2022/02/02 08:23:56;;;;;;;12.35;4.80;;;;;;;;;;4982428;28;20023;-71
2022/02/02 08:26:22;;;;;;;18.70;5.95;;;;;;;;;;4978922;28;20038;-70
2022/02/02 08:28:49;;;;;;;16.15;5.90;;;;;;;;;;4979136;28;20102;-69
2022/02/02 08:31:16;;;;;;;12.93;4.90;;;;;;;;;;4982364;28;20034;-71
2022/02/02 08:33:46;;;;;;;20.70;6.50;;;;;;;;;;4995680;28;20106;-71
2022/02/02 08:36:16;;;;;;;15.05;6.20;;;;;;;;;;4982787;28;20088;-69
2022/02/02 08:41:29;;;;;;;19.25;6.15;;;;;;;;;;4978978;28;20081;-70
2022/02/02 08:44:03;;;;;;;11.93;4.75;;;;;;;;;;4979817;28;20055;-70
2022/02/02 08:46:32;;;;;;;17.90;5.45;;;;;;;;;;4982050;28;20030;-71
2022/02/02 08:48:58;;;;;;;21.20;6.18;;;;;;;;;;4976228;28;20081;-70
2022/02/02 08:51:30;;;;;;;21.10;5.95;;;;;;;;;;4984272;28;20078;-70
2022/02/02 08:54:26;;;;;;;19.88;5.63;;;;;;;;;;4977086;28;20030;-70
2022/02/02 08:57:14;;;;;;;19.20;5.57;;;;;;;;;;4983181;28;20054;-70
2022/02/02 09:02:09;;;;;;;;;;;;;;;;;;4984106;28;19910;-69
2022/02/02 09:07:19;;;;;;;15.23;5.20;;;;;;;;;;4978264;28;20053;-70
2022/02/02 09:21:27;;;;;;;26.23;7.40;;;;;;;;;;4983363;28;20089;-70
2022/02/02 09:23:46;;;;;;;22.20;6.25;;;;;;;;;;4978533;28;20511;-70
2022/02/02 09:36:29;;;;;;;11.50;4.07;;;;;;;;;;4977537;28;20026;-70
2022/02/02 09:38:58;;;;;;;20.35;5.43;;;;;;;;;;4978345;28;20125;-71
2022/02/02 09:44:06;;;;;;;17.02;5.15;;;;;;;;;;4979548;28;20405;-70
2022/02/02 09:46:46;;;;;;;15.93;7.13;;;;;;;;;;4984970;28;20030;-71
2022/02/02 09:49:21;;;;;;;16.55;5.03;;;;;;;;;;4979720;28;20473;-69
2022/02/02 09:52:09;;;;;;;14.45;4.43;;;;;;;;;;4987951;28;20019;-70
2022/02/02 09:54:48;;;;;;;19.08;5.93;;;;;;;;;;4994819;28;20049;-70
2022/02/02 10:05:30;;;;;;;15.38;4.70;;;;;;;;;;4976320;28;20027;-70
2022/02/02 10:10:51;;;;;;;20.73;5.13;;;;;;;;;;4985518;28;20045;-70
2022/02/02 10:13:35;;;;;;;12.73;4.90;;;;;;;;;;4985124;28;20034;-70
2022/02/02 10:16:01;;;;;;;10.20;4.90;;;;;;;;;;4985911;28;20022;-71
2022/02/02 10:18:33;;;;;;;12.35;5.05;;;;;;;;;;4987062;28;20081;-71
2022/02/02 10:20:59;;;;;;;20.83;5.15;;;;;;;;;;4983022;28;20033;-71
2022/02/02 10:23:27;;;;;;;14.50;4.22;;;;;;;;;;4983040;28;20019;-70
2022/02/02 10:25:57;;;;;;;12.32;4.25;;;;;;;;;;4984805;28;20126;-72
2022/02/02 10:28:25;;;;;;;14.43;5.15;;;;;;;;;;4984702;28;20034;-70
2022/02/02 10:30:55;;;;;;;12.75;5.22;;;;;;;;;;4991784;28;20030;-71
2022/02/02 10:33:26;;;;;;;18.45;5.13;;;;;;;;;;4973706;28;20031;-70
2022/02/02 10:35:53;;;;;;;15.18;4.53;;;;;;;;;;4978559;28;20023;-70
2022/02/02 10:38:43;;;;;;;14.38;3.92;;;;;;;;;;4980567;28;20892;-72
2022/02/02 10:44:17;;;;;;;16.23;5.25;;;;;;;;;;4974774;28;20041;-70
2022/02/02 10:46:42;;;;;;;14.40;3.95;;;;;;;;;;4986782;28;20096;-69
2022/02/02 10:49:15;;;;;;;15.80;5.43;;;;;;;;;;4973220;28;20503;-71
2022/02/02 11:00:01;;;;;;;14.50;4.55;;;;;;;;;;4982601;28;20039;-71
2022/02/02 11:07:26;;;;;;;11.05;4.57;;;;;;;;;;4992200;28;20054;-71
2022/02/02 11:09:52;;;;;;;10.80;5.30;;;;;;;;;;4981208;28;20038;-70
2022/02/02 11:12:21;;;;;;;18.00;5.38;;;;;;;;;;4992478;28;20027;-72
2022/02/02 11:15:02;;;;;;;13.38;4.15;;;;;;;;;;4982722;28;20041;-71
2022/02/02 11:17:31;;;;;;;20.65;5.75;;;;;;;;;;4979576;28;20240;-70
2022/02/02 11:20:01;;;;;;;15.40;4.97;;;;;;;;;;4982463;28;20037;-71
2022/02/02 11:22:31;;;;;;;14.00;5.15;;;;;;;;;;4980968;28;20027;-70
2022/02/02 11:25:18;;;;;;;13.15;4.38;;;;;;;;;;4989683;28;20031;-70
2022/02/02 11:27:46;;;;;;;16.55;4.88;;;;;;;;;;4983775;28;20135;-71
2022/02/02 11:30:25;;;;;;;14.93;5.93;;;;;;;;;;4982256;28;20054;-71
2022/02/02 11:32:53;;;;;;;9.52;4.35;;;;;;;;;;4995339;28;20034;-71
2022/02/02 11:35:39;;;;;;;12.73;5.80;;;;;;;;;;4985283;28;20030;-71
2022/02/02 11:38:10;;;;;;;14.98;5.53;;;;;;;;;;4989008;28;20019;-71
2022/02/02 11:40:56;;;;;;;12.35;4.95;;;;;;;;;;4977420;28;20031;-70
2022/02/02 11:43:42;;;;;;;12.27;4.80;;;;;;;;;;4983943;28;20102;-69
2022/02/02 11:46:17;;;;;;;9.43;4.70;;;;;;;;;;4988166;28;20038;-71
2022/02/02 11:49:01;;;;;;;10.85;4.45;;;;;;;;;;4987617;28;20064;-70
2022/02/02 11:51:39;;;;;;;12.10;4.50;;;;;;;;;;4990225;28;20026;-71
2022/02/02 11:54:07;;;;;;;13.77;4.57;;;;;;;;;;4983921;28;20182;-71
2022/02/02 11:56:53;;;;;;;16.13;3.53;;;;;;;;;;5000590;28;20121;-71
2022/02/02 12:02:54;;;;;;;14.65;4.15;;;;;;;;;;4984372;28;20040;-71
2022/02/02 12:06:10;;;;;;;10.32;4.47;;;;;;;;;;4974944;28;20037;-70
2022/02/02 12:08:49;;;;;;;9.82;3.85;;;;;;;;;;4986546;28;20030;-70
2022/02/02 12:36:02;;;;;;;7.18;3.40;;;;;;;;;;4979858;28;20037;-70
2022/02/02 12:58:03;;;;;;;7.30;2.22;;;;;;;;;;5000130;28;20037;-69
2022/02/02 13:02:59;;;;;;;6.35;2.67;;;;;;;;;;4980908;28;20023;-70
2022/02/02 13:05:26;;;;;;;7.85;2.40;;;;;;;;;;4976162;28;20068;-70
2022/02/02 13:07:56;;;;;;;10.15;3.05;;;;;;;;;;4980333;28;20027;-70
2022/02/02 13:10:27;;;;;;;11.07;3.30;;;;;;;;;;4976384;28;20059;-71
2022/02/02 13:13:06;;;;;;;12.48;4.30;;;;;;;;;;4984486;28;20065;-71
2022/02/02 13:15:41;;;;;;;8.80;3.30;;;;;;;;;;4980039;28;20036;-71
2022/02/02 13:23:16;;;;;;;8.48;3.42;;;;;;;;;;4987206;28;20037;-70
2022/02/02 13:25:44;;;;;;;8.55;2.60;;;;;;;;;;4987508;28;20037;-70
2022/02/02 13:28:11;;;;;;;10.38;4.45;;;;;;;;;;4983588;28;20759;-72
2022/02/02 13:30:52;;;;;;;8.10;3.33;;;;;;;;;;4973707;28;20122;-73
2022/02/02 13:33:28;;;;;;;9.70;2.80;;;;;;;;;;4987092;28;20105;-70
2022/02/02 13:36:18;;;;;;;6.22;3.05;;;;;;;;;;4982401;28;20117;-70
2022/02/02 13:39:15;;;;;;;8.20;3.53;;;;;;;;;;4977980;28;20094;-70
2022/02/02 13:44:50;;;;;;;7.43;2.92;;;;;;;;;;4976778;28;20069;-70
2022/02/02 13:50:37;;;;;;;6.20;3.17;;;;;;;;;;4987695;28;20037;-71
2022/02/02 13:53:39;;;;;;;4.68;2.63;;;;;;;;;;4982496;28;20033;-71
2022/02/02 13:55:49;;;;;;;8.45;2.75;;;;;;;;;;4989067;28;20084;-70
2022/02/02 14:01:02;;;;;;;8.57;2.88;;;;;;;;;;4979831;28;20073;-70
2022/02/02 14:06:32;;;;;;;5.93;3.10;;;;;;;;;;4981633;28;20043;-70
2022/02/02 14:09:19;;;;;;;5.60;3.05;;;;;;;;;;4987949;28;20035;-71
2022/02/02 14:33:17;;;;;;;6.25;3.13;;;;;;;;;;4988553;28;20084;-72
2022/02/02 14:35:45;;;;;;;6.82;3.35;;;;;;;;;;4987295;28;20878;-71
2022/02/02 14:38:13;;;;;;;5.82;2.72;;;;;;;;;;4989133;28;20554;-71
2022/02/02 14:43:28;;;;;;;12.93;2.70;;;;;;;;;;4987269;28;20038;-72
2022/02/02 14:45:58;;;;;;;7.22;3.08;;;;;;;;;;4986594;28;20144;-71
2022/02/02 14:48:36;;;;;;;7.00;4.22;;;;;;;;;;4987404;28;20514;-71
2022/02/02 14:51:23;;;;;;;10.45;4.10;;;;;;;;;;5002143;28;20041;-71
2022/02/02 15:16:46;;;;;;;9.30;3.08;;;;;;;;;;4985839;28;20065;-70
2022/02/02 15:29:24;;;;;;;13.32;5.93;;;;;;;;;;4988441;28;20111;-71
2022/02/02 15:31:51;;;;;;;8.98;4.43;;;;;;;;;;4986942;28;20049;-72
2022/02/02 15:34:25;;;;;;;10.10;4.13;;;;;;;;;;4986684;28;20034;-69
2022/02/02 15:39:19;;;;;;;9.65;4.93;;;;;;;;;;4989947;28;20064;-72
2022/02/02 16:05:21;;;;;;;10.88;2.78;;;;;;;;;;4988128;28;20031;-70
2022/02/02 16:07:49;;;;;;;11.63;4.10;;;;;;;;;;4989480;28;20365;-70
2022/02/02 16:10:25;;;;;;;9.80;3.50;;;;;;;;;;4991065;28;20062;-70
2022/02/02 16:12:51;;;;;;;11.27;3.42;;;;;;;;;;5005787;28;20061;-70
2022/02/02 16:15:23;;;;;;;8.60;3.47;;;;;;;;;;4986006;28;20027;-73
2022/02/02 16:18:09;;;;;;;8.35;3.63;;;;;;;;;;4985009;28;20049;-70
2022/02/02 16:37:31;;;;;;;9.43;3.65;;;;;;;;;;4980647;28;20097;-71
2022/02/02 16:40:01;;;;;;;5.07;2.90;;;;;;;;;;4986533;28;20054;-73
2022/02/02 16:45:13;;;;;;;9.68;3.85;;;;;;;;;;4985085;28;20045;-70
2022/02/02 16:47:39;;;;;;;11.65;4.05;;;;;;;;;;4983912;28;20030;-72
2022/02/02 16:50:05;;;;;;;7.35;4.90;;;;;;;;;;4987231;28;20041;-72
2022/02/02 16:52:34;;;;;;;14.07;5.25;;;;;;;;;;4989190;28;20042;-73
2022/02/02 16:55:05;;;;;;;15.68;5.95;;;;;;;;;;4986696;28;20030;-69
2022/02/02 17:41:52;;;;;;;11.30;3.92;;;;;;;;;;4982834;28;20039;-71
2022/02/02 17:45:57;;;;;;;9.23;7.20;;;;;;;;;;4984326;28;20034;-71
2022/02/02 18:20:43;;;;;;;20.40;18.33;;;;;;;;;;4986661;28;20038;-70
2022/02/02 18:23:23;;;;;;;11.13;9.20;;;;;;;;;;4986427;28;20029;-71
2022/02/02 18:25:59;;;;;;;10.55;7.70;;;;;;;;;;4999844;28;20076;-70
2022/02/02 18:28:31;;;;;;;;;;;;;;;;;;5002706;28;20034;-72
2022/02/02 18:33:52;;;;;;;16.65;12.63;;;;;;;;;;4986266;28;20101;-71
2022/02/02 18:37:38;;;;;;;10.93;7.38;;;;;;;;;;4980870;28;20037;-70
2022/02/02 19:52:56;;;;;;;7.45;4.95;;;;;;;;;;4982747;28;20491;-68
2022/02/02 20:08:47;;;;;;;7.95;5.00;;;;;;;;;;4981470;28;20035;-70
2022/02/02 20:11:20;;;;;;;7.20;4.80;;;;;;;;;;4986168;28;20042;-71
2022/02/02 20:13:46;;;;;;;9.00;5.38;;;;;;;;;;4984028;28;20057;-70
2022/02/02 20:16:12;;;;;;;8.48;5.40;;;;;;;;;;4982416;28;20089;-70
2022/02/02 20:18:43;;;;;;;8.77;4.40;;;;;;;;;;4982714;28;20030;-71
2022/02/02 20:21:11;;;;;;;6.10;4.45;;;;;;;;;;4981407;28;20113;-72
2022/02/02 20:23:42;;;;;;;6.75;4.43;;;;;;;;;;4990809;28;20026;-71
2022/02/02 20:26:11;;;;;;;9.27;5.05;;;;;;;;;;4978344;28;20022;-70
2022/02/02 20:28:37;;;;;;;9.85;6.20;;;;;;;;;;4991788;28;20366;-71
2022/02/02 20:31:03;;;;;;;8.60;5.82;;;;;;;;;;4990918;28;20080;-70
2022/02/02 20:33:29;;;;;;;9.25;6.82;;;;;;;;;;4991820;28;20527;-69
2022/02/02 20:35:55;;;;;;;12.15;5.60;;;;;;;;;;4989094;28;20026;-70
2022/02/02 20:38:21;;;;;;;12.95;7.55;;;;;;;;;;4983564;28;20026;-70
2022/02/02 20:40:48;;;;;;;10.90;6.88;;;;;;;;;;4990738;28;20023;-70
2022/02/02 20:43:26;;;;;;;12.73;8.00;;;;;;;;;;4981514;28;20117;-70
2022/02/02 21:08:16;;;;;;;8.90;6.65;;;;;;;;;;4989691;28;20027;-70
2022/02/02 21:10:39;;;;;;;9.45;6.18;;;;;;;;;;4985885;28;20543;-70
2022/02/02 21:15:51;;;;;;;8.80;6.55;;;;;;;;;;4978985;28;20516;-69
2022/02/02 21:18:21;;;;;;;10.48;5.53;;;;;;;;;;4987299;28;20042;-70
2022/02/02 21:28:35;;;;;;;7.68;6.07;;;;;;;;;;4982012;28;20041;-70
2022/02/02 21:31:01;;;;;;;12.57;6.82;;;;;;;;;;4981412;28;20388;-70
2022/02/02 21:33:28;;;;;;;11.15;6.80;;;;;;;;;;4983327;28;20412;-69
2022/02/02 21:35:55;;;;;;;9.77;6.00;;;;;;;;;;4981681;28;20023;-70
2022/02/02 21:40:54;;;;;;;10.55;5.80;;;;;;;;;;4980474;28;20479;-69
2022/02/02 21:43:21;;;;;;;7.07;4.80;;;;;;;;;;4983502;28;20385;-70
2022/02/02 21:45:48;;;;;;;7.88;4.95;;;;;;;;;;4981181;28;20070;-69
2022/02/02 21:48:14;;;;;;;7.97;5.18;;;;;;;;;;4979314;28;20096;-71
2022/02/02 21:50:49;;;;;;;9.10;5.47;;;;;;;;;;4985214;28;20065;-70
2022/02/02 21:53:15;;;;;;;8.00;4.80;;;;;;;;;;4977891;28;20030;-70
2022/02/02 21:55:41;;;;;;;6.93;5.15;;;;;;;;;;4982099;28;20132;-70
2022/02/02 21:58:07;;;;;;;8.05;4.53;;;;;;;;;;4982448;28;20034;-68
2022/02/02 22:00:34;;;;;;;9.52;5.15;;;;;;;;;;4987345;28;20441;-69
2022/02/02 22:03:00;;;;;;;9.15;6.40;;;;;;;;;;4994876;28;20747;-69
2022/02/02 22:05:26;;;;;;;8.75;5.43;;;;;;;;;;4988997;28;20509;-70
2022/02/02 22:07:52;;;;;;;6.97;5.13;;;;;;;;;;4984289;28;20037;-68
2022/02/02 22:10:20;;;;;;;7.30;5.00;;;;;;;;;;4986289;28;20105;-70
2022/02/02 22:12:46;;;;;;;6.78;4.60;;;;;;;;;;4979726;28;20025;-70
2022/02/02 22:15:19;;;;;;;6.20;4.45;;;;;;;;;;4982133;28;20035;-68
2022/02/02 22:17:46;;;;;;;4.82;4.32;;;;;;;;;;4983241;28;20033;-71
2022/02/02 22:20:14;;;;;;;5.05;4.50;;;;;;;;;;4979229;28;20030;-69
2022/02/02 22:22:41;;;;;;;6.75;4.43;;;;;;;;;;4984104;28;20105;-70
2022/02/02 22:25:08;;;;;;;6.25;4.32;;;;;;;;;;4999300;28;20034;-70
2022/02/02 22:27:34;;;;;;;8.25;4.70;;;;;;;;;;4980179;28;20037;-70
2022/02/02 22:30:01;;;;;;;7.00;5.38;;;;;;;;;;4982884;28;20424;-69
2022/02/02 22:32:27;;;;;;;12.20;7.30;;;;;;;;;;4985050;28;20029;-70
2022/02/02 22:34:53;;;;;;;34.05;15.52;;;;;;;;;;4986239;28;20029;-69
2022/02/02 22:37:19;;;;;;;29.63;15.48;;;;;;;;;;4985171;28;20124;-69
2022/02/02 22:39:46;;;;;;;16.83;8.20;;;;;;;;;;4988937;28;20022;-70
2022/02/02 22:42:13;;;;;;;11.52;8.60;;;;;;;;;;4978615;28;20031;-70
2022/02/02 22:44:40;;;;;;;12.25;10.07;;;;;;;;;;4990263;28;20031;-69
2022/02/02 22:47:08;;;;;;;15.00;7.72;;;;;;;;;;4983198;28;20035;-69
2022/02/02 22:49:37;;;;;;;8.23;6.00;;;;;;;;;;4987362;28;20026;-68
2022/02/02 22:52:03;;;;;;;10.15;6.05;;;;;;;;;;4980223;28;20023;-70
2022/02/02 22:54:29;;;;;;;7.38;5.65;;;;;;;;;;4992675;28;20038;-69
2022/02/02 22:56:55;;;;;;;4.75;3.75;;;;;;;;;;4986520;28;20042;-69
2022/02/02 22:59:21;;;;;;;3.38;2.97;;;;;;;;;;4993601;28;20023;-70
2022/02/02 23:01:55;;;;;;;6.20;4.28;;;;;;;;;;4991551;28;20035;-70
2022/02/02 23:04:22;;;;;;;3.80;3.30;;;;;;;;;;4989135;28;20018;-70
2022/02/02 23:06:48;;;;;;;4.38;3.50;;;;;;;;;;4987739;28;20064;-70
2022/02/02 23:09:15;;;;;;;5.35;3.80;;;;;;;;;;4984534;28;20035;-69
2022/02/02 23:11:41;;;;;;;7.47;3.80;;;;;;;;;;4994774;28;20034;-71
2022/02/02 23:14:09;;;;;;;6.93;3.75;;;;;;;;;;4983146;28;20053;-70
2022/02/02 23:16:42;;;;;;;4.93;3.10;;;;;;;;;;4990784;28;20041;-71
2022/02/02 23:19:08;;;;;;;4.70;3.88;;;;;;;;;;4994512;28;20216;-68
2022/02/02 23:21:36;;;;;;;5.22;3.75;;;;;;;;;;4988301;28;20045;-70
2022/02/02 23:24:04;;;;;;;5.97;3.90;;;;;;;;;;4987171;28;20026;-69
2022/02/02 23:26:31;;;;;;;7.57;4.05;;;;;;;;;;4994095;28;20122;-69
2022/02/02 23:28:59;;;;;;;7.55;5.22;;;;;;;;;;4992213;28;20032;-71
2022/02/02 23:31:26;;;;;;;6.75;4.03;;;;;;;;;;4989885;28;20022;-69
2022/02/02 23:33:52;;;;;;;4.88;3.55;;;;;;;;;;4990352;28;20153;-69
2022/02/02 23:36:20;;;;;;;6.60;3.80;;;;;;;;;;4986755;28;20038;-70
2022/02/02 23:38:47;;;;;;;5.00;3.90;;;;;;;;;;4985205;28;20109;-69
2022/02/02 23:43:58;;;;;;;8.32;4.38;;;;;;;;;;4989233;28;20053;-71
2022/02/02 23:46:25;;;;;;;5.78;4.40;;;;;;;;;;4991372;28;20022;-70
2022/02/02 23:48:53;;;;;;;6.85;3.80;;;;;;;;;;4991499;28;20535;-70
2022/02/02 23:51:27;;;;;;;6.70;4.75;;;;;;;;;;4999150;28;20030;-71
2022/02/02 23:53:54;;;;;;;6.65;4.15;;;;;;;;;;4990379;28;20058;-71
2022/02/02 23:58:51;;;;;;;9.55;5.47;;;;;;;;;;4981883;28;20033;-70
